TimeEDT,TemperatureF,Dew PointF,Humidity,Sea Level PressureIn,VisibilityMPH,Wind Direction,Wind SpeedMPH,Gust SpeedMPH,PrecipitationIn,Events,Conditions,WindDirDegrees,DateUTC
12:56 AM,25.0,19.0,78,30.32,10.0,WNW,6.9,-,N/A,,Clear,300,2013-03-14 04:56:00
1:56 AM,25.0,17.1,72,30.33,10.0,WNW,5.8,-,N/A,,Clear,290,2013-03-14 05:56:00
2:56 AM,23.0,17.1,78,30.33,10.0,West,6.9,-,N/A,,Clear,270,2013-03-14 06:56:00
3:56 AM,23.0,16.0,74,30.33,10.0,West,8.1,-,N/A,,Clear,270,2013-03-14 07:56:00
4:56 AM,23.0,16.0,74,30.33,10.0,West,5.8,-,N/A,,Clear,260,2013-03-14 08:56:00
5:56 AM,21.0,16.0,81,30.34,10.0,WSW,5.8,-,N/A,,Clear,250,2013-03-14 09:56:00
6:56 AM,21.0,17.1,85,30.34,10.0,WSW,6.9,-,N/A,,Clear,250,2013-03-14 10:56:00
7:56 AM,19.9,16.0,85,30.34,10.0,WSW,6.9,-,N/A,,Clear,250,2013-03-14 11:56:00
8:56 AM,25.0,19.9,81,30.35,10.0,WSW,8.1,-,N/A,,Partly Cloudy,250,2013-03-14 12:56:00
9:56 AM,28.0,19.0,69,30.36,10.0,West,8.1,-,N/A,,Partly Cloudy,270,2013-03-14 13:56:00
10:56 AM,30.9,19.0,61,30.36,10.0,West,9.2,-,N/A,,Partly Cloudy,270,2013-03-14 14:56:00
11:56 AM,32.0,15.1,50,30.35,10.0,West,6.9,-,N/A,,Partly Cloudy,270,2013-03-14 15:56:00
12:56 PM,35.1,17.1,48,30.33,10.0,West,11.5,-,N/A,,Partly Cloudy,270,2013-03-14 16:56:00
1:56 PM,37.0,18.0,46,30.32,10.0,West,11.5,-,N/A,,Scattered Clouds,260,2013-03-14 17:56:00
2:56 PM,37.9,19.0,47,30.29,10.0,WSW,12.7,-,N/A,,Mostly Cloudy,250,2013-03-14 18:56:00
3:56 PM,39.9,21.0,47,30.25,10.0,West,13.8,19.6,N/A,,Scattered Clouds,260,2013-03-14 19:56:00
4:56 PM,41.0,21.9,47,30.24,10.0,WSW,13.8,19.6,N/A,,Scattered Clouds,250,2013-03-14 20:56:00
5:56 PM,41.0,19.9,43,30.24,10.0,WSW,11.5,-,N/A,,Mostly Cloudy,250,2013-03-14 21:56:00
6:56 PM,37.9,19.9,48,30.22,10.0,West,10.4,-,N/A,,Mostly Cloudy,260,2013-03-14 22:56:00
7:56 PM,35.1,21.9,59,30.22,10.0,WSW,5.8,-,N/A,,Mostly Cloudy,240,2013-03-14 23:56:00
8:56 PM,34.0,21.9,61,30.22,10.0,WSW,4.6,-,N/A,,Scattered Clouds,250,2013-03-15 00:56:00
9:56 PM,36.0,21.9,57,30.22,10.0,SW,8.1,-,N/A,,Overcast,230,2013-03-15 01:56:00
10:56 PM,34.0,19.9,56,30.19,10.0,SW,6.9,-,N/A,,Scattered Clouds,220,2013-03-15 02:56:00
11:56 PM,30.9,21.0,67,30.18,10.0,SW,8.1,-,N/A,,Clear,230,2013-03-15 03:56:00